createdAt,value
2022-09-25T00:00:49.971Z,11.80
2022-09-25T00:03:17.301Z,11.80
2022-09-25T00:05:45.992Z,11.80
2022-09-25T00:08:12.894Z,11.80
2022-09-25T00:10:47.192Z,11.80
2022-09-25T00:13:14.787Z,11.80
2022-09-25T00:15:51.602Z,11.80
2022-09-25T00:18:38.294Z,11.80
2022-09-25T00:21:05.845Z,11.80
2022-09-25T00:23:33.651Z,11.80
2022-09-25T00:26:01.522Z,11.80
2022-09-25T00:28:29.458Z,11.80
2022-09-25T00:30:56.608Z,11.70
2022-09-25T00:33:23.571Z,11.80
2022-09-25T00:35:50.435Z,11.70
2022-09-25T00:38:16.998Z,11.80
2022-09-25T00:40:43.610Z,11.80
2022-09-25T00:43:39.476Z,11.80
2022-09-25T00:46:12.005Z,11.80
2022-09-25T00:48:40.774Z,11.70
2022-09-25T00:51:07.371Z,11.70
2022-09-25T00:53:36.785Z,11.80
2022-09-25T00:56:03.422Z,11.70
2022-09-25T00:58:30.025Z,11.70
2022-09-25T01:00:56.661Z,11.70
2022-09-25T01:03:23.342Z,11.70
2022-09-25T01:05:49.959Z,11.70
2022-09-25T01:08:21.999Z,11.90
2022-09-25T01:10:48.546Z,11.80
2022-09-25T01:13:15.107Z,11.80
2022-09-25T01:16:02.360Z,11.80
2022-09-25T01:18:50.825Z,11.80
2022-09-25T01:21:33.451Z,11.70
2022-09-25T01:24:31.214Z,11.70
2022-09-25T01:27:34.782Z,11.70
2022-09-25T01:30:14.773Z,11.70
2022-09-25T01:33:07.966Z,11.70
2022-09-25T01:35:54.431Z,11.70
2022-09-25T01:38:31.971Z,11.70
2022-09-25T01:41:18.732Z,11.60
2022-09-25T01:43:48.389Z,11.70
2022-09-25T01:46:37.111Z,11.80
2022-09-25T01:49:08.338Z,11.60
2022-09-25T01:51:39.482Z,11.50
2022-09-25T01:54:09.641Z,11.60
2022-09-25T01:56:39.842Z,11.60
2022-09-25T01:59:15.960Z,11.60
2022-09-25T02:01:43.048Z,11.50
2022-09-25T02:04:16.237Z,11.50
2022-09-25T02:06:44.377Z,11.50
2022-09-25T02:09:14.535Z,11.50
2022-09-25T02:11:43.892Z,11.50
2022-09-25T02:14:22.851Z,11.50
2022-09-25T02:16:52.926Z,11.50
2022-09-25T02:19:48.444Z,11.50
2022-09-25T02:22:19.997Z,11.50
2022-09-25T02:25:07.207Z,11.40
2022-09-25T02:27:34.070Z,11.40
2022-09-25T02:30:01.382Z,11.40
2022-09-25T02:32:31.865Z,11.40
2022-09-25T02:34:59.697Z,11.40
2022-09-25T02:37:26.370Z,11.40
2022-09-25T02:39:55.710Z,11.50
2022-09-25T02:42:48.098Z,11.40
2022-09-25T02:45:41.359Z,11.40
2022-09-25T02:48:24.058Z,11.40
2022-09-25T02:51:04.268Z,11.40
2022-09-25T02:53:45.281Z,11.40
2022-09-25T02:56:31.416Z,11.40
2022-09-25T02:59:07.609Z,11.40
2022-09-25T03:01:35.208Z,11.40
2022-09-25T03:04:01.929Z,11.40
2022-09-25T03:06:28.501Z,11.40
2022-09-25T03:08:56.691Z,11.40
2022-09-25T03:11:24.077Z,11.40
2022-09-25T03:14:00.531Z,11.40
2022-09-25T03:16:48.755Z,11.40
2022-09-25T03:19:16.054Z,11.40
2022-09-25T03:21:42.722Z,11.40
2022-09-25T03:24:09.628Z,11.40
2022-09-25T03:26:36.288Z,11.40
2022-09-25T03:29:03.200Z,11.50
2022-09-25T03:31:30.084Z,11.40
2022-09-25T03:33:56.761Z,11.40
2022-09-25T03:36:24.946Z,11.40
2022-09-25T03:38:53.205Z,11.40
2022-09-25T03:41:21.847Z,11.40
2022-09-25T03:43:51.293Z,11.40
2022-09-25T03:46:39.407Z,11.40
2022-09-25T03:49:06.623Z,11.40
2022-09-25T03:51:33.664Z,11.40
2022-09-25T03:54:00.251Z,11.40
2022-09-25T03:56:27.995Z,11.40
2022-09-25T03:58:54.695Z,11.40
2022-09-25T04:01:21.909Z,11.40
2022-09-25T04:03:48.971Z,11.40
2022-09-25T04:06:19.921Z,11.40
2022-09-25T04:08:47.433Z,11.40
2022-09-25T04:11:15.466Z,11.30
2022-09-25T04:13:44.088Z,11.30
2022-09-25T04:16:10.898Z,11.40
2022-09-25T04:18:37.583Z,11.40
2022-09-25T04:21:05.781Z,11.40
2022-09-25T04:23:32.567Z,11.30
2022-09-25T04:25:59.287Z,11.40
2022-09-25T04:28:25.914Z,11.30
2022-09-25T04:30:52.585Z,11.30
2022-09-25T04:33:38.094Z,11.30
2022-09-25T04:36:05.116Z,11.40
2022-09-25T04:38:32.408Z,11.30
2022-09-25T04:41:02.739Z,11.30
2022-09-25T04:43:29.901Z,11.30
2022-09-25T04:46:00.421Z,11.30
2022-09-25T04:48:26.957Z,11.30
2022-09-25T04:50:53.527Z,11.30
2022-09-25T04:53:20.494Z,11.30
2022-09-25T04:55:48.005Z,11.40
2022-09-25T04:58:14.567Z,11.30
2022-09-25T05:00:42.566Z,11.40
2022-09-25T05:03:09.213Z,11.40
2022-09-25T05:05:35.938Z,11.40
2022-09-25T05:08:02.831Z,11.40
2022-09-25T05:10:30.887Z,11.40
2022-09-25T05:12:58.800Z,11.40
2022-09-25T05:15:25.860Z,11.40
2022-09-25T05:18:03.250Z,11.40
2022-09-25T05:20:29.866Z,11.40
2022-09-25T05:22:57.212Z,11.40
2022-09-25T05:25:27.162Z,11.40
2022-09-25T05:27:55.705Z,11.40
2022-09-25T05:30:22.888Z,11.40
2022-09-25T05:32:50.367Z,11.40
2022-09-25T05:35:18.399Z,11.40
2022-09-25T05:37:44.973Z,11.40
2022-09-25T05:40:11.747Z,11.40
2022-09-25T05:42:38.475Z,11.40
2022-09-25T05:45:07.640Z,11.40
2022-09-25T05:47:34.403Z,11.40
2022-09-25T05:50:01.136Z,11.40
2022-09-25T05:52:27.745Z,11.40
2022-09-25T05:54:54.386Z,11.40
2022-09-25T05:57:21.905Z,11.50
2022-09-25T05:59:49.588Z,11.50
2022-09-25T06:02:16.632Z,11.40
2022-09-25T06:04:43.343Z,11.40
2022-09-25T06:07:10.018Z,11.50
2022-09-25T06:09:36.627Z,11.50
2022-09-25T06:12:03.393Z,11.40
2022-09-25T06:14:30.376Z,11.40
2022-09-25T06:16:59.455Z,11.50
2022-09-25T06:19:28.955Z,11.50
2022-09-25T06:21:57.614Z,11.50
2022-09-25T06:24:24.475Z,11.50
2022-09-25T06:26:51.116Z,11.50
2022-09-25T06:29:17.775Z,11.50
2022-09-25T06:31:44.458Z,11.60
2022-09-25T06:34:11.819Z,11.60
2022-09-25T06:36:38.942Z,11.60
2022-09-25T06:39:05.555Z,11.70
2022-09-25T06:41:32.486Z,11.70
2022-09-25T06:44:00.055Z,11.70
2022-09-25T06:46:26.786Z,11.80
2022-09-25T06:48:57.788Z,11.80
2022-09-25T06:51:24.919Z,11.80
2022-09-25T06:53:54.765Z,11.90
2022-09-25T06:56:21.479Z,11.90
2022-09-25T06:58:48.128Z,11.90
2022-09-25T07:01:14.800Z,12.10
2022-09-25T07:03:47.631Z,12.10
2022-09-25T07:06:26.463Z,12.20
2022-09-25T07:08:53.230Z,12.20
2022-09-25T07:11:24.935Z,12.20
2022-09-25T07:13:52.318Z,12.20
2022-09-25T07:16:19.637Z,12.30
2022-09-25T07:18:46.655Z,12.30
2022-09-25T07:21:17.706Z,12.30
2022-09-25T07:23:44.383Z,12.30
2022-09-25T07:26:25.100Z,12.40
2022-09-25T07:28:55.620Z,12.40
2022-09-25T07:31:23.209Z,12.40
2022-09-25T07:33:49.941Z,12.50
2022-09-25T07:36:17.133Z,12.50
2022-09-25T07:38:43.878Z,12.60
2022-09-25T07:41:11.129Z,12.60
2022-09-25T07:43:38.632Z,12.60
2022-09-25T07:46:06.053Z,12.60
2022-09-25T07:48:32.702Z,12.60
2022-09-25T07:51:06.781Z,12.60
2022-09-25T07:53:33.394Z,12.60
2022-09-25T07:56:05.292Z,12.50
2022-09-25T07:58:33.030Z,12.40
2022-09-25T08:01:00.380Z,12.50
2022-09-25T08:03:27.432Z,12.40
2022-09-25T08:06:01.019Z,12.40
2022-09-25T08:08:28.188Z,12.40
2022-09-25T08:11:11.720Z,12.40
2022-09-25T08:13:38.667Z,12.50
2022-09-25T08:16:06.430Z,12.50
2022-09-25T08:18:33.365Z,12.40
2022-09-25T08:21:06.191Z,12.40
2022-09-25T08:23:32.790Z,12.40
2022-09-25T08:25:59.635Z,12.30
2022-09-25T08:28:26.362Z,12.50
2022-09-25T08:30:54.198Z,12.40
2022-09-25T08:33:20.871Z,12.50
2022-09-25T08:36:00.819Z,12.50
2022-09-25T08:38:28.199Z,12.50
2022-09-25T08:41:21.015Z,12.50
2022-09-25T08:44:21.687Z,12.60
2022-09-25T08:47:25.210Z,12.50
2022-09-25T08:50:10.776Z,12.50
2022-09-25T08:52:37.942Z,12.40
2022-09-25T08:55:08.639Z,12.40
2022-09-25T08:57:45.102Z,12.40
2022-09-25T09:00:22.998Z,12.40
2022-09-25T09:02:57.556Z,12.40
2022-09-25T09:05:35.139Z,12.30
2022-09-25T09:08:06.183Z,12.30
2022-09-25T09:10:32.795Z,12.40
2022-09-25T09:13:26.513Z,12.30
2022-09-25T09:16:15.721Z,12.30
2022-09-25T09:18:42.412Z,12.40
2022-09-25T09:21:27.627Z,12.40
2022-09-25T09:24:08.085Z,12.40
2022-09-25T09:26:40.868Z,12.50
2022-09-25T09:29:29.043Z,12.50
2022-09-25T09:31:59.504Z,12.60
2022-09-25T09:37:54.355Z,12.70
2022-09-25T09:40:51.689Z,12.80
2022-09-25T09:43:30.754Z,12.80
2022-09-25T09:46:08.312Z,12.80
2022-09-25T09:48:36.868Z,12.90
2022-09-25T09:51:08.725Z,12.90
2022-09-25T09:53:51.908Z,12.90
2022-09-25T09:56:25.948Z,12.90
2022-09-25T09:58:56.977Z,13.00
2022-09-25T10:01:42.132Z,12.90
2022-09-25T10:04:19.783Z,12.90
2022-09-25T10:06:58.719Z,13.00
2022-09-25T10:09:27.029Z,13.10
2022-09-25T10:12:00.549Z,13.10
2022-09-25T10:14:31.279Z,13.10
2022-09-25T10:16:58.110Z,13.30
2022-09-25T10:19:25.428Z,13.30
2022-09-25T10:21:53.389Z,13.40
2022-09-25T10:24:46.919Z,13.50
2022-09-25T10:27:36.528Z,13.50
2022-09-25T10:30:06.556Z,13.70
2022-09-25T10:32:44.900Z,13.70
2022-09-25T10:35:37.419Z,13.70
2022-09-25T10:38:04.485Z,13.70
2022-09-25T10:40:35.974Z,13.70
2022-09-25T10:43:29.160Z,13.70
2022-09-25T10:46:13.010Z,13.80
2022-09-25T10:48:58.199Z,13.70
2022-09-25T10:51:24.962Z,13.70
2022-09-25T10:54:12.618Z,13.80
2022-09-25T10:56:39.263Z,13.80
2022-09-25T10:59:24.961Z,13.70
2022-09-25T11:01:53.550Z,13.80
2022-09-25T11:04:28.273Z,13.80
2022-09-25T11:07:00.338Z,13.70
2022-09-25T11:09:32.256Z,13.60
2022-09-25T11:12:13.968Z,13.60
2022-09-25T11:14:46.603Z,13.50
2022-09-25T11:17:39.720Z,13.50
2022-09-25T11:20:16.372Z,13.50
2022-09-25T11:22:46.556Z,13.50
2022-09-25T11:25:24.646Z,13.60
2022-09-25T11:27:56.620Z,13.50
2022-09-25T11:30:23.838Z,13.50
2022-09-25T11:33:28.249Z,13.40
2022-09-25T11:36:08.152Z,13.30
2022-09-25T11:38:58.671Z,13.30
2022-09-25T11:41:28.331Z,13.30
2022-09-25T11:44:31.812Z,13.40
2022-09-25T11:47:06.883Z,13.30
2022-09-25T11:49:38.559Z,13.40
2022-09-25T11:52:39.942Z,13.40
2022-09-25T11:55:15.435Z,13.50
2022-09-25T11:57:51.262Z,13.50
2022-09-25T12:00:31.356Z,13.60
2022-09-25T12:03:33.953Z,13.60
2022-09-25T12:06:27.242Z,13.60
2022-09-25T12:09:43.278Z,13.50
2022-09-25T12:12:32.234Z,13.50
2022-09-25T12:15:20.919Z,13.50
2022-09-25T12:18:07.600Z,13.50
2022-09-25T12:20:40.915Z,13.50
2022-09-25T12:23:25.350Z,13.60
2022-09-25T12:26:11.207Z,13.60
2022-09-25T12:28:54.623Z,13.70
2022-09-25T12:31:27.130Z,13.80
2022-09-25T12:34:06.140Z,13.70
2022-09-25T12:36:39.586Z,13.80
2022-09-25T12:39:40.376Z,13.80
2022-09-25T12:42:12.110Z,13.90
2022-09-25T12:44:50.177Z,13.90
2022-09-25T12:47:33.283Z,14.00
2022-09-25T12:50:14.963Z,14.10
2022-09-25T12:52:53.543Z,14.10
2022-09-25T12:55:27.543Z,14.10
2022-09-25T12:58:34.193Z,14.10
2022-09-25T13:01:26.609Z,14.10
2022-09-25T13:04:05.344Z,14.00
2022-09-25T13:06:35.704Z,14.00
2022-09-25T13:09:44.937Z,14.00
2022-09-25T13:12:18.836Z,14.00
2022-09-25T13:15:00.196Z,13.90
2022-09-25T13:17:26.958Z,14.00
2022-09-25T13:19:53.648Z,13.90
2022-09-25T13:22:24.937Z,13.80
2022-09-25T13:25:01.933Z,13.80
2022-09-25T13:27:35.315Z,13.70
2022-09-25T13:30:05.130Z,13.70
2022-09-25T13:32:34.696Z,13.70
2022-09-25T13:35:04.580Z,13.70
2022-09-25T13:37:35.993Z,13.70
2022-09-25T13:40:35.823Z,13.70
2022-09-25T13:43:20.839Z,13.70
2022-09-25T13:45:48.698Z,13.70
2022-09-25T13:48:30.865Z,13.80
2022-09-25T13:51:22.287Z,13.80
2022-09-25T13:54:05.304Z,13.70
2022-09-25T13:56:41.280Z,13.80
2022-09-25T13:59:12.294Z,13.70
2022-09-25T14:01:46.157Z,13.70
2022-09-25T14:04:15.874Z,13.70
2022-09-25T14:06:44.538Z,13.70
2022-09-25T14:09:12.794Z,13.70
2022-09-25T14:11:40.786Z,13.70
2022-09-25T14:14:14.231Z,13.70
2022-09-25T14:16:46.526Z,13.70
2022-09-25T14:19:20.321Z,13.60
2022-09-25T14:21:48.063Z,13.50
2022-09-25T14:24:23.397Z,13.50
2022-09-25T14:26:52.074Z,13.50
2022-09-25T14:29:26.118Z,13.50
2022-09-25T14:32:25.845Z,13.40
2022-09-25T14:35:16.582Z,13.40
2022-09-25T14:38:07.368Z,13.40
2022-09-25T14:40:40.884Z,13.40
2022-09-25T14:43:25.601Z,13.40
2022-09-25T14:46:15.033Z,13.40
2022-09-25T14:48:51.379Z,13.40
2022-09-25T14:51:54.227Z,13.50
2022-09-25T14:54:22.990Z,13.50
2022-09-25T14:56:52.919Z,13.60
2022-09-25T14:59:33.445Z,13.60
2022-09-25T15:02:02.363Z,13.70
2022-09-25T15:04:32.204Z,13.70
2022-09-25T15:07:00.115Z,13.70
2022-09-25T15:09:47.196Z,13.80
2022-09-25T15:12:29.732Z,13.80
2022-09-25T15:15:21.564Z,13.80
2022-09-25T15:17:49.525Z,13.80
2022-09-25T15:20:19.580Z,13.70
2022-09-25T15:22:49.118Z,13.70
2022-09-25T15:25:26.811Z,13.80
2022-09-25T15:27:53.513Z,13.80
2022-09-25T15:30:20.291Z,13.80
2022-09-25T15:32:48.671Z,13.80
2022-09-25T15:35:25.915Z,13.80
2022-09-25T15:38:12.092Z,13.70
2022-09-25T15:40:38.932Z,13.80
2022-09-25T15:43:12.215Z,13.70
2022-09-25T15:46:01.707Z,13.70
2022-09-25T15:48:33.228Z,13.80
2022-09-25T15:51:25.619Z,13.80
2022-09-25T15:53:55.627Z,13.70
2022-09-25T15:56:29.699Z,13.70
2022-09-25T15:59:04.695Z,13.70
2022-09-25T16:01:51.338Z,13.70
2022-09-25T16:04:40.983Z,13.70
2022-09-25T16:07:26.483Z,13.70
2022-09-25T16:09:54.796Z,13.60
2022-09-25T16:12:34.895Z,13.60
2022-09-25T16:15:29.943Z,13.60
2022-09-25T16:18:02.858Z,13.50
2022-09-25T16:20:36.973Z,13.40
2022-09-25T16:23:05.288Z,13.50
2022-09-25T16:25:36.637Z,13.40
2022-09-25T16:28:08.562Z,13.40
2022-09-25T16:30:35.147Z,13.30
2022-09-25T16:33:31.862Z,13.30
2022-09-25T16:36:15.830Z,13.20
2022-09-25T16:39:02.319Z,13.10
2022-09-25T16:41:28.951Z,13.20
2022-09-25T16:44:16.184Z,13.10
2022-09-25T16:46:46.975Z,13.00
2022-09-25T16:49:13.820Z,13.00
2022-09-25T16:51:47.532Z,13.00
2022-09-25T16:54:15.612Z,12.90
2022-09-25T16:56:43.028Z,12.80
2022-09-25T16:59:21.689Z,12.80
2022-09-25T17:01:49.904Z,12.70
2022-09-25T17:04:16.766Z,12.70
2022-09-25T17:06:47.399Z,12.70
2022-09-25T17:09:15.015Z,12.60
2022-09-25T17:11:44.230Z,12.50
2022-09-25T17:14:24.812Z,12.40
2022-09-25T17:16:51.560Z,12.30
2022-09-25T17:19:19.099Z,12.30
2022-09-25T17:21:51.131Z,12.20
2022-09-25T17:24:19.006Z,12.20
2022-09-25T17:26:46.216Z,12.10
2022-09-25T17:29:13.298Z,12.00
2022-09-25T17:31:40.150Z,12.00
2022-09-25T17:34:16.219Z,12.00
2022-09-25T17:36:42.871Z,11.90
2022-09-25T17:39:09.568Z,11.80
2022-09-25T17:41:36.587Z,11.80
2022-09-25T17:44:04.079Z,11.80
2022-09-25T17:46:33.926Z,11.70
2022-09-25T17:49:00.887Z,11.70
2022-09-25T17:51:28.410Z,11.60
2022-09-25T17:53:56.195Z,11.60
2022-09-25T17:56:23.800Z,11.60
2022-09-25T17:58:51.109Z,11.50
2022-09-25T18:01:22.590Z,11.50
2022-09-25T18:03:56.283Z,11.50
2022-09-25T18:06:23.346Z,11.50
2022-09-25T18:08:50.498Z,11.50
2022-09-25T18:11:17.243Z,11.40
2022-09-25T18:13:43.953Z,11.40
2022-09-25T18:16:16.817Z,11.40
2022-09-25T18:19:03.014Z,11.40
2022-09-25T18:21:48.225Z,11.30
2022-09-25T18:24:14.873Z,11.40
2022-09-25T18:26:42.652Z,11.30
2022-09-25T18:29:19.176Z,11.20
2022-09-25T18:31:46.441Z,11.10
2022-09-25T18:34:13.788Z,11.10
2022-09-25T18:36:40.376Z,11.00
2022-09-25T18:39:07.162Z,11.00
2022-09-25T18:41:40.407Z,11.00
2022-09-25T18:44:07.268Z,11.00
2022-09-25T18:46:40.230Z,11.00
2022-09-25T18:49:06.966Z,11.00
2022-09-25T18:51:34.043Z,11.00
2022-09-25T18:54:00.737Z,10.90
2022-09-25T18:56:28.153Z,10.90
2022-09-25T18:58:54.788Z,10.80
2022-09-25T19:01:21.626Z,10.70
2022-09-25T19:03:52.129Z,10.60
2022-09-25T19:06:18.922Z,10.60
2022-09-25T19:08:55.723Z,10.50
2022-09-25T19:11:26.317Z,10.50
2022-09-25T19:13:52.934Z,10.40
2022-09-25T19:16:20.050Z,10.30
2022-09-25T19:18:46.884Z,10.30
2022-09-25T19:21:15.170Z,10.20
2022-09-25T19:23:46.300Z,10.10
2022-09-25T19:26:14.899Z,10.10
2022-09-25T19:28:41.534Z,10.00
2022-09-25T19:31:12.439Z,10.00
2022-09-25T19:33:39.175Z,9.90
2022-09-25T19:36:08.347Z,9.80
2022-09-25T19:38:36.465Z,9.80
2022-09-25T19:41:03.181Z,9.70
2022-09-25T19:43:33.688Z,9.70
2022-09-25T19:46:00.363Z,9.70
2022-09-25T19:48:27.008Z,9.60
2022-09-25T19:50:53.663Z,9.60
2022-09-25T19:53:20.268Z,9.50
2022-09-25T19:55:54.017Z,9.50
2022-09-25T19:58:23.644Z,9.50
2022-09-25T20:00:50.952Z,9.50
2022-09-25T20:03:18.015Z,9.50
2022-09-25T20:05:44.758Z,9.50
2022-09-25T20:08:11.458Z,9.50
2022-09-25T20:10:38.122Z,9.40
2022-09-25T20:13:05.077Z,9.40
2022-09-25T20:15:32.261Z,9.40
2022-09-25T20:17:59.402Z,9.40
2022-09-25T20:20:27.550Z,9.40
2022-09-25T20:22:54.177Z,9.40
2022-09-25T20:25:21.152Z,9.40
2022-09-25T20:27:52.065Z,9.40
2022-09-25T20:30:18.922Z,9.30
2022-09-25T20:32:45.569Z,9.30
2022-09-25T20:35:12.172Z,9.20
2022-09-25T20:37:38.894Z,9.20
2022-09-25T20:40:05.747Z,9.10
2022-09-25T20:42:33.863Z,9.00
2022-09-25T20:45:00.466Z,8.90
2022-09-25T20:47:33.522Z,8.80
2022-09-25T20:50:00.664Z,8.70
2022-09-25T20:52:27.835Z,8.70
2022-09-25T20:54:54.423Z,8.60
2022-09-25T20:57:21.011Z,8.60
2022-09-25T20:59:47.595Z,8.50
2022-09-25T21:02:14.305Z,8.40
2022-09-25T21:04:40.964Z,8.30
2022-09-25T21:07:07.565Z,8.20
2022-09-25T21:09:34.152Z,8.10
2022-09-25T21:12:05.397Z,8.00
2022-09-25T21:14:33.551Z,8.00
2022-09-25T21:17:00.289Z,7.90
2022-09-25T21:19:27.894Z,7.90
2022-09-25T21:21:54.484Z,7.90
2022-09-25T21:24:21.270Z,7.80
2022-09-25T21:26:48.085Z,7.80
2022-09-25T21:29:18.380Z,7.80
2022-09-25T21:31:49.683Z,7.70
2022-09-25T21:34:17.426Z,7.70
2022-09-25T21:36:45.434Z,7.60
2022-09-25T21:39:12.355Z,7.50
2022-09-25T21:41:39.017Z,7.50
2022-09-25T21:44:07.473Z,7.50
2022-09-25T21:46:37.656Z,7.40
2022-09-25T21:49:05.378Z,7.40
2022-09-25T21:51:36.740Z,7.30
2022-09-25T21:54:03.848Z,7.30
2022-09-25T21:56:31.362Z,7.40
2022-09-25T21:58:58.030Z,7.40
2022-09-25T22:01:28.665Z,7.40
2022-09-25T22:03:56.675Z,7.30
2022-09-25T22:06:31.912Z,7.30
2022-09-25T22:09:00.382Z,7.20
2022-09-25T22:11:27.433Z,7.10
2022-09-25T22:13:55.389Z,7.10
2022-09-25T22:16:26.939Z,7.10
2022-09-25T22:19:02.211Z,7.10
2022-09-25T22:21:30.597Z,7.10
2022-09-25T22:23:57.354Z,7.00
2022-09-25T22:26:24.019Z,7.00
2022-09-25T22:28:50.668Z,6.90
2022-09-25T22:31:21.904Z,6.80
2022-09-25T22:33:48.726Z,6.70
2022-09-25T22:36:15.321Z,6.70
2022-09-25T22:38:41.954Z,6.70
2022-09-25T22:41:10.525Z,6.70
2022-09-25T22:43:37.338Z,6.70
2022-09-25T22:46:04.494Z,6.70
2022-09-25T22:48:31.167Z,6.70
2022-09-25T22:50:58.508Z,6.70
2022-09-25T22:53:25.457Z,6.80
2022-09-25T22:55:52.068Z,6.70
2022-09-25T22:58:18.914Z,6.60
2022-09-25T23:00:51.038Z,6.70
2022-09-25T23:03:18.665Z,6.80
2022-09-25T23:05:45.455Z,6.80
2022-09-25T23:08:12.105Z,6.90
2022-09-25T23:11:02.554Z,6.90
2022-09-25T23:13:25.322Z,6.80
2022-09-25T23:15:51.884Z,6.70
2022-09-25T23:18:18.437Z,6.60
2022-09-25T23:20:44.982Z,6.60
2022-09-25T23:23:11.544Z,6.30
2022-09-25T23:25:38.101Z,6.30
2022-09-25T23:28:04.860Z,6.30
2022-09-25T23:30:32.679Z,6.20
2022-09-25T23:32:59.281Z,6.10
2022-09-25T23:35:25.824Z,6.10
2022-09-25T23:37:52.413Z,6.10
2022-09-25T23:40:19.127Z,6.00
2022-09-25T23:42:45.795Z,5.90
2022-09-25T23:45:12.332Z,6.00
2022-09-25T23:47:38.902Z,6.00
2022-09-25T23:50:05.865Z,6.00
2022-09-25T23:52:32.409Z,6.10
2022-09-25T23:54:59.268Z,6.10
2022-09-25T23:57:25.843Z,6.10
2022-09-25T23:59:52.455Z,6.10
